Time;durP1;ratioP1;P1;durP2;ratioP2;P2;SDS_P1;SDS_P2;PMS_P1;PMS_P2;Temp;Humidity;BMP_temperature;BMP_pressure;BME280_temperature;BME280_humidity;BME280_pressure;Samples;Min_cycle;Max_cycle;Signal;HPM_P1;HPM_P2
2024/01/25 00:01:30;;;;;;;8.52;4.20;;;;;;;;;;5059657;28;20033;-70
2024/01/25 00:03:56;;;;;;;9.07;3.85;;;;;;;;;;5055266;28;20381;-69
2024/01/25 00:06:22;;;;;;;8.00;5.28;;;;;;;;;;5050511;28;20067;-70
2024/01/25 00:08:49;;;;;;;6.72;4.28;;;;;;;;;;5044487;28;20032;-70
2024/01/25 00:11:15;;;;;;;9.77;3.78;;;;;;;;;;5053013;28;21442;-70
2024/01/25 00:13:41;;;;;;;16.65;3.55;;;;;;;;;;5056192;28;20031;-70
2024/01/25 00:16:07;;;;;;;7.60;2.92;;;;;;;;;;5061895;28;20032;-69
2024/01/25 00:18:34;;;;;;;6.78;2.80;;;;;;;;;;5056259;28;20112;-70
2024/01/25 00:21:00;;;;;;;7.15;3.08;;;;;;;;;;5054937;28;20029;-70
2024/01/25 00:23:26;;;;;;;4.88;3.08;;;;;;;;;;5050395;28;20155;-70
2024/01/25 00:25:52;;;;;;;7.80;3.60;;;;;;;;;;5048924;28;20026;-69
2024/01/25 00:28:18;;;;;;;4.63;2.95;;;;;;;;;;5054796;28;20025;-69
2024/01/25 00:30:45;;;;;;;11.50;3.65;;;;;;;;;;5056570;28;20107;-70
2024/01/25 00:33:11;;;;;;;10.18;3.03;;;;;;;;;;5049796;28;20110;-70
2024/01/25 00:35:37;;;;;;;8.02;2.63;;;;;;;;;;5059188;28;20663;-70
2024/01/25 00:38:03;;;;;;;5.90;3.10;;;;;;;;;;5048685;28;20392;-69
2024/01/25 00:40:29;;;;;;;8.32;3.13;;;;;;;;;;5054641;28;20044;-70
2024/01/25 00:42:56;;;;;;;13.45;2.85;;;;;;;;;;5050641;28;20029;-70
2024/01/25 00:45:22;;;;;;;8.73;3.33;;;;;;;;;;5059126;28;20100;-70
2024/01/25 00:47:49;;;;;;;8.02;3.40;;;;;;;;;;5057298;28;20113;-70
2024/01/25 00:50:20;;;;;;;8.15;3.08;;;;;;;;;;5050086;28;20028;-70
2024/01/25 00:52:48;;;;;;;11.82;4.35;;;;;;;;;;5053488;28;20036;-69
2024/01/25 00:55:15;;;;;;;10.63;4.55;;;;;;;;;;5040378;28;20032;-70
2024/01/25 00:57:41;;;;;;;16.92;4.13;;;;;;;;;;5042645;28;20634;-69
2024/01/25 01:00:08;;;;;;;8.48;3.72;;;;;;;;;;5072758;28;20112;-70
2024/01/25 01:02:44;;;;;;;9.30;2.97;;;;;;;;;;5078511;28;20503;-70
2024/01/25 01:05:11;;;;;;;4.45;2.33;;;;;;;;;;5075630;28;20020;-69
2024/01/25 01:07:37;;;;;;;13.13;3.20;;;;;;;;;;5076573;28;20032;-69
2024/01/25 01:10:04;;;;;;;14.35;3.03;;;;;;;;;;5078391;28;20031;-70
2024/01/25 01:12:30;;;;;;;4.40;2.28;;;;;;;;;;5081147;28;20036;-70
2024/01/25 01:14:57;;;;;;;6.30;3.10;;;;;;;;;;5080130;28;20028;-69
2024/01/25 01:17:23;;;;;;;8.70;2.75;;;;;;;;;;5071284;28;20031;-70
2024/01/25 01:19:49;;;;;;;10.23;3.35;;;;;;;;;;5069642;28;20031;-70
2024/01/25 01:22:18;;;;;;;5.97;3.03;;;;;;;;;;5080555;28;20035;-70
2024/01/25 01:24:44;;;;;;;5.53;2.60;;;;;;;;;;5074015;28;20624;-70
2024/01/25 01:27:11;;;;;;;6.05;2.97;;;;;;;;;;5076314;28;20031;-70
2024/01/25 01:29:37;;;;;;;7.60;2.85;;;;;;;;;;5078047;28;20028;-69
2024/01/25 01:32:03;;;;;;;7.78;2.83;;;;;;;;;;5075980;28;20028;-70
2024/01/25 01:34:29;;;;;;;6.13;2.72;;;;;;;;;;5072028;28;20027;-69
2024/01/25 01:36:55;;;;;;;5.00;2.42;;;;;;;;;;5074087;28;20036;-70
2024/01/25 01:39:22;;;;;;;6.47;3.00;;;;;;;;;;5073281;28;20027;-69
2024/01/25 01:41:50;;;;;;;5.60;3.47;;;;;;;;;;5077854;28;20109;-69
2024/01/25 01:44:16;;;;;;;7.15;3.15;;;;;;;;;;5072663;28;20021;-70
2024/01/25 01:46:43;;;;;;;11.30;4.85;;;;;;;;;;5072373;28;20047;-70
2024/01/25 01:49:11;;;;;;;22.70;6.93;;;;;;;;;;5075090;28;20020;-70
2024/01/25 01:51:38;;;;;;;5.50;4.40;;;;;;;;;;5075330;28;20668;-69
2024/01/25 01:54:06;;;;;;;4.75;3.50;;;;;;;;;;5067508;28;20133;-69
2024/01/25 01:56:33;;;;;;;10.82;3.42;;;;;;;;;;5079759;28;20028;-69
2024/01/25 01:59:03;;;;;;;15.70;4.43;;;;;;;;;;5060474;28;20059;-69
2024/01/25 02:01:29;;;;;;;7.30;3.88;;;;;;;;;;5047761;28;20032;-69
2024/01/25 02:03:56;;;;;;;8.15;2.67;;;;;;;;;;5053167;28;20044;-69
2024/01/25 02:06:25;;;;;;;5.68;2.80;;;;;;;;;;5058009;28;20024;-69
2024/01/25 02:08:53;;;;;;;7.13;2.65;;;;;;;;;;5026050;28;20542;-69
2024/01/25 02:11:19;;;;;;;12.98;3.30;;;;;;;;;;5054869;28;20527;-69
2024/01/25 02:13:47;;;;;;;9.15;2.75;;;;;;;;;;5060471;28;20028;-69
2024/01/25 02:16:14;;;;;;;14.63;2.70;;;;;;;;;;5034430;28;20028;-70
2024/01/25 02:18:41;;;;;;;7.57;2.58;;;;;;;;;;5039044;28;20491;-68
2024/01/25 02:21:07;;;;;;;9.77;2.75;;;;;;;;;;5054990;28;20040;-69
2024/01/25 02:23:34;;;;;;;12.55;3.28;;;;;;;;;;5058517;28;20664;-68
2024/01/25 02:26:00;;;;;;;10.30;3.05;;;;;;;;;;5056599;28;20099;-69
2024/01/25 02:28:26;;;;;;;9.32;2.75;;;;;;;;;;5057405;28;20039;-69
2024/01/25 02:30:52;;;;;;;5.85;3.05;;;;;;;;;;5051783;28;20021;-69
2024/01/25 02:33:19;;;;;;;8.68;3.47;;;;;;;;;;5051483;28;20392;-69
2024/01/25 02:35:45;;;;;;;10.07;3.20;;;;;;;;;;5049274;28;20048;-69
2024/01/25 02:38:11;;;;;;;6.20;2.63;;;;;;;;;;5056970;28;20047;-69
2024/01/25 02:40:37;;;;;;;9.77;2.80;;;;;;;;;;5054975;28;20063;-68
2024/01/25 02:43:03;;;;;;;5.32;2.35;;;;;;;;;;5046912;28;20456;-69
2024/01/25 02:45:29;;;;;;;11.02;3.40;;;;;;;;;;5052041;28;20028;-69
2024/01/25 02:47:56;;;;;;;11.43;3.10;;;;;;;;;;5032691;28;20033;-69
2024/01/25 02:50:22;;;;;;;12.70;3.50;;;;;;;;;;5050665;28;20029;-69
2024/01/25 02:52:48;;;;;;;5.38;2.83;;;;;;;;;;5047219;28;20041;-69
2024/01/25 02:55:14;;;;;;;8.02;2.55;;;;;;;;;;5054407;28;20032;-69
2024/01/25 02:57:41;;;;;;;10.23;3.00;;;;;;;;;;5050158;28;20041;-69
2024/01/25 03:00:08;;;;;;;13.15;2.70;;;;;;;;;;5052218;28;20035;-69
2024/01/25 03:02:34;;;;;;;11.38;2.60;;;;;;;;;;5052512;28;20079;-69
2024/01/25 03:05:00;;;;;;;15.25;3.17;;;;;;;;;;5020237;28;20056;-69
2024/01/25 03:07:27;;;;;;;2.50;1.67;;;;;;;;;;5053305;28;20033;-69
2024/01/25 03:09:53;;;;;;;1.98;1.48;;;;;;;;;;5034443;28;20028;-68
2024/01/25 03:12:20;;;;;;;4.55;1.85;;;;;;;;;;5054492;28;20024;-69
2024/01/25 03:14:46;;;;;;;2.55;2.08;;;;;;;;;;5060503;28;20028;-63
2024/01/25 03:17:12;;;;;;;2.08;1.52;;;;;;;;;;5036745;28;20044;-63
2024/01/25 03:19:38;;;;;;;5.72;1.55;;;;;;;;;;5054481;28;20763;-63
2024/01/25 03:22:04;;;;;;;3.80;1.75;;;;;;;;;;5044879;28;20040;-63
2024/01/25 03:24:31;;;;;;;3.30;1.73;;;;;;;;;;5054822;28;20029;-64
2024/01/25 03:26:57;;;;;;;0.98;0.98;;;;;;;;;;5050513;28;20063;-64
2024/01/25 03:29:23;;;;;;;3.10;1.42;;;;;;;;;;5054798;28;20056;-63
2024/01/25 03:31:50;;;;;;;3.30;1.23;;;;;;;;;;5053517;28;20383;-63
2024/01/25 03:34:16;;;;;;;1.20;1.10;;;;;;;;;;5053501;28;20032;-63
2024/01/25 03:36:42;;;;;;;0.80;0.80;;;;;;;;;;5056136;28;20139;-64
2024/01/25 03:39:08;;;;;;;1.00;1.00;;;;;;;;;;5051670;28;20405;-63
2024/01/25 03:41:34;;;;;;;2.47;1.10;;;;;;;;;;5055264;28;20028;-64
2024/01/25 03:44:00;;;;;;;0.90;0.90;;;;;;;;;;5056270;28;20124;-63
2024/01/25 03:46:27;;;;;;;0.90;0.90;;;;;;;;;;5053106;28;20387;-64
2024/01/25 03:48:54;;;;;;;0.95;0.95;;;;;;;;;;5057151;28;20082;-63
2024/01/25 03:51:20;;;;;;;1.25;1.25;;;;;;;;;;5060113;28;21021;-63
2024/01/25 03:53:46;;;;;;;0.90;0.90;;;;;;;;;;5039821;28;20032;-64
2024/01/25 03:56:13;;;;;;;0.80;0.80;;;;;;;;;;5038652;28;20021;-63
2024/01/25 03:58:39;;;;;;;0.80;0.80;;;;;;;;;;5059346;28;20250;-63
2024/01/25 04:01:05;;;;;;;0.90;0.90;;;;;;;;;;5057942;28;20029;-63
2024/01/25 04:03:31;;;;;;;0.88;0.88;;;;;;;;;;5056980;28;20109;-63
2024/01/25 04:05:58;;;;;;;0.88;0.88;;;;;;;;;;5057306;28;20025;-62
2024/01/25 04:08:24;;;;;;;0.90;0.90;;;;;;;;;;5050385;28;21508;-63
2024/01/25 04:10:50;;;;;;;1.00;1.00;;;;;;;;;;5055712;28;20519;-62
2024/01/25 04:13:16;;;;;;;0.80;0.80;;;;;;;;;;5052949;28;20039;-63
2024/01/25 04:15:42;;;;;;;0.80;0.80;;;;;;;;;;5059730;28;20047;-63
2024/01/25 04:18:08;;;;;;;0.90;0.90;;;;;;;;;;5041449;28;20610;-63
2024/01/25 04:20:35;;;;;;;0.80;0.80;;;;;;;;;;5039662;28;20484;-63
2024/01/25 04:23:05;;;;;;;0.70;0.70;;;;;;;;;;5039478;28;20119;-63
2024/01/25 04:25:31;;;;;;;0.80;0.80;;;;;;;;;;5050385;28;20424;-64
2024/01/25 04:27:58;;;;;;;0.90;0.90;;;;;;;;;;5052035;28;20033;-63
2024/01/25 04:30:24;;;;;;;0.80;0.80;;;;;;;;;;5057180;28;20163;-63
2024/01/25 04:32:50;;;;;;;0.80;0.80;;;;;;;;;;5056696;28;20103;-63
2024/01/25 04:35:16;;;;;;;0.75;0.75;;;;;;;;;;5057381;28;20040;-63
2024/01/25 04:37:42;;;;;;;0.75;0.75;;;;;;;;;;5061467;28;20075;-63
2024/01/25 04:40:08;;;;;;;0.80;0.80;;;;;;;;;;5053034;28;20037;-63
2024/01/25 04:42:35;;;;;;;0.75;0.75;;;;;;;;;;5050476;28;20029;-63
2024/01/25 04:45:01;;;;;;;0.80;0.80;;;;;;;;;;5052006;28;20209;-65
2024/01/25 04:47:27;;;;;;;0.82;0.82;;;;;;;;;;5051827;28;20040;-63
2024/01/25 04:49:53;;;;;;;0.80;0.80;;;;;;;;;;5054577;28;20362;-63
2024/01/25 04:52:20;;;;;;;0.80;0.80;;;;;;;;;;5051664;28;20024;-63
2024/01/25 04:54:46;;;;;;;0.70;0.70;;;;;;;;;;5034092;28;20503;-63
2024/01/25 04:57:12;;;;;;;1.10;1.10;;;;;;;;;;5059531;28;20060;-63
2024/01/25 04:59:38;;;;;;;3.20;1.00;;;;;;;;;;5050638;28;20060;-63
2024/01/25 05:02:04;;;;;;;0.90;0.90;;;;;;;;;;5050787;28;20032;-63
2024/01/25 05:04:31;;;;;;;0.88;0.88;;;;;;;;;;5053194;28;20033;-62
2024/01/25 05:06:57;;;;;;;0.82;0.82;;;;;;;;;;5052785;28;20456;-63
2024/01/25 05:09:23;;;;;;;0.80;0.80;;;;;;;;;;5051001;28;20032;-63
2024/01/25 05:11:50;;;;;;;0.88;0.88;;;;;;;;;;5058243;28;20753;-62
2024/01/25 05:14:16;;;;;;;1.13;1.00;;;;;;;;;;5052151;28;20462;-63
2024/01/25 05:16:42;;;;;;;0.90;0.90;;;;;;;;;;5050127;28;20029;-63
2024/01/25 05:19:08;;;;;;;1.10;1.00;;;;;;;;;;5054726;28;20081;-64
2024/01/25 05:21:34;;;;;;;1.08;1.08;;;;;;;;;;5058661;28;20029;-63
2024/01/25 05:24:00;;;;;;;1.15;0.93;;;;;;;;;;5049778;28;20107;-62
2024/01/25 05:26:26;;;;;;;0.80;0.80;;;;;;;;;;5053951;28;20408;-64
2024/01/25 05:28:52;;;;;;;0.93;0.93;;;;;;;;;;5051109;28;20460;-62
2024/01/25 05:31:19;;;;;;;2.72;1.10;;;;;;;;;;5037105;28;20040;-63
2024/01/25 05:33:45;;;;;;;1.00;1.00;;;;;;;;;;5052368;28;20036;-63
2024/01/25 05:36:13;;;;;;;1.38;1.27;;;;;;;;;;5038675;28;20484;-63
2024/01/25 05:38:39;;;;;;;2.63;1.52;;;;;;;;;;5050488;28;20445;-64
2024/01/25 05:41:05;;;;;;;3.20;1.10;;;;;;;;;;5052944;28;20031;-63
2024/01/25 05:43:33;;;;;;;6.18;1.67;;;;;;;;;;5051160;28;20480;-63
2024/01/25 05:45:59;;;;;;;7.68;1.60;;;;;;;;;;5051961;28;20020;-63
2024/01/25 05:48:25;;;;;;;7.35;1.80;;;;;;;;;;5047847;28;20029;-62
2024/01/25 05:50:51;;;;;;;3.80;1.52;;;;;;;;;;5051236;28;20090;-63
2024/01/25 05:53:19;;;;;;;3.63;1.50;;;;;;;;;;5041984;28;20643;-63
2024/01/25 05:55:46;;;;;;;2.05;1.40;;;;;;;;;;5056168;28;20498;-67
2024/01/25 05:58:12;;;;;;;2.83;1.52;;;;;;;;;;5045601;28;20078;-63
2024/01/25 06:00:38;;;;;;;4.18;1.80;;;;;;;;;;5034959;28;20115;-62
2024/01/25 06:03:04;;;;;;;4.40;1.48;;;;;;;;;;5053344;28;20098;-63
2024/01/25 06:05:32;;;;;;;6.55;1.70;;;;;;;;;;5052422;28;20546;-63
2024/01/25 06:07:58;;;;;;;2.03;1.83;;;;;;;;;;5034369;28;20424;-63
2024/01/25 06:10:24;;;;;;;1.52;1.42;;;;;;;;;;5048491;28;20102;-64
2024/01/25 06:12:51;;;;;;;3.63;1.42;;;;;;;;;;5054793;28;20519;-63
2024/01/25 06:15:17;;;;;;;4.63;1.50;;;;;;;;;;5048294;28;20060;-62
2024/01/25 06:17:43;;;;;;;6.13;1.30;;;;;;;;;;5047479;28;20167;-64
2024/01/25 06:20:10;;;;;;;1.65;1.55;;;;;;;;;;5052577;28;20029;-64
2024/01/25 06:22:36;;;;;;;1.80;1.25;;;;;;;;;;5052142;28;20020;-63
2024/01/25 06:25:03;;;;;;;2.80;1.70;;;;;;;;;;5052712;28;20200;-63
2024/01/25 06:27:29;;;;;;;4.85;2.55;;;;;;;;;;5046079;28;20116;-63
2024/01/25 06:29:56;;;;;;;4.72;1.95;;;;;;;;;;5044141;28;20035;-64
2024/01/25 06:32:22;;;;;;;2.63;1.50;;;;;;;;;;5038217;28;20025;-63
2024/01/25 06:34:48;;;;;;;1.20;1.20;;;;;;;;;;5047410;28;20029;-65
2024/01/25 06:37:15;;;;;;;3.47;1.33;;;;;;;;;;5055853;28;20047;-63
2024/01/25 06:39:42;;;;;;;8.43;1.65;;;;;;;;;;5051931;28;20507;-63
2024/01/25 06:42:08;;;;;;;3.63;1.60;;;;;;;;;;5037794;28;20396;-67
2024/01/25 06:44:34;;;;;;;1.52;1.33;;;;;;;;;;5052339;28;20036;-63
2024/01/25 06:47:00;;;;;;;3.35;1.77;;;;;;;;;;5038664;28;20480;-63
2024/01/25 06:49:26;;;;;;;1.48;1.33;;;;;;;;;;5051927;28;20025;-63
2024/01/25 06:51:53;;;;;;;1.45;1.35;;;;;;;;;;5048655;28;20044;-63
2024/01/25 06:54:19;;;;;;;3.20;1.67;;;;;;;;;;5051173;28;20059;-63
2024/01/25 06:56:45;;;;;;;2.78;1.55;;;;;;;;;;5054816;28;20119;-63
2024/01/25 06:59:11;;;;;;;1.95;1.40;;;;;;;;;;5056540;28;20509;-63
2024/01/25 07:01:37;;;;;;;1.35;1.15;;;;;;;;;;5052932;28;20028;-63
2024/01/25 07:04:03;;;;;;;2.63;1.27;;;;;;;;;;5056841;28;20043;-63
2024/01/25 07:06:30;;;;;;;1.10;1.10;;;;;;;;;;5034714;28;20491;-63
2024/01/25 07:08:56;;;;;;;2.60;1.40;;;;;;;;;;5052465;28;20428;-62
2024/01/25 07:11:23;;;;;;;1.38;1.27;;;;;;;;;;5047386;28;20755;-63
2024/01/25 07:13:49;;;;;;;1.27;1.17;;;;;;;;;;5045910;28;20056;-63
2024/01/25 07:16:15;;;;;;;1.88;1.20;;;;;;;;;;5053547;28;20048;-64
2024/01/25 07:18:41;;;;;;;1.95;1.35;;;;;;;;;;5057950;28;20092;-65
2024/01/25 07:21:07;;;;;;;1.08;1.08;;;;;;;;;;5045988;28;20456;-64
2024/01/25 07:23:36;;;;;;;2.08;1.10;;;;;;;;;;5054258;28;20109;-64
2024/01/25 07:26:02;;;;;;;0.90;0.90;;;;;;;;;;5058784;28;20349;-66
2024/01/25 07:28:28;;;;;;;1.95;1.40;;;;;;;;;;5054928;28;20112;-67
2024/01/25 07:30:55;;;;;;;1.08;1.08;;;;;;;;;;5038955;28;21494;-67
2024/01/25 07:33:21;;;;;;;1.10;1.10;;;;;;;;;;5054447;28;20039;-62
2024/01/25 07:35:47;;;;;;;0.93;0.93;;;;;;;;;;5053962;28;20107;-66
2024/01/25 07:38:14;;;;;;;1.25;1.25;;;;;;;;;;5047739;28;20484;-67
2024/01/25 07:40:41;;;;;;;3.15;1.13;;;;;;;;;;5040785;28;20712;-64
2024/01/25 07:43:10;;;;;;;2.78;1.25;;;;;;;;;;5047663;28;20029;-65
2024/01/25 07:45:39;;;;;;;4.28;1.27;;;;;;;;;;5041887;28;20032;-65
2024/01/25 07:48:06;;;;;;;1.10;1.10;;;;;;;;;;5043684;28;20044;-63
2024/01/25 07:50:32;;;;;;;1.10;1.10;;;;;;;;;;5048878;28;20021;-64
2024/01/25 07:53:00;;;;;;;1.00;1.00;;;;;;;;;;5051655;28;20029;-63
2024/01/25 07:55:27;;;;;;;2.67;1.17;;;;;;;;;;5048990;28;20033;-63
2024/01/25 07:57:53;;;;;;;1.73;1.25;;;;;;;;;;5052252;28;20126;-63
2024/01/25 08:00:19;;;;;;;0.98;0.98;;;;;;;;;;5048717;28;20028;-63
2024/01/25 08:02:46;;;;;;;3.28;1.30;;;;;;;;;;5053511;28;20567;-62
2024/01/25 08:05:12;;;;;;;1.17;1.13;;;;;;;;;;5047582;28;20032;-63
2024/01/25 08:07:38;;;;;;;1.20;1.20;;;;;;;;;;5049198;28;20036;-63
2024/01/25 08:10:05;;;;;;;1.33;1.27;;;;;;;;;;5050279;28;20031;-63
2024/01/25 08:12:33;;;;;;;2.17;1.38;;;;;;;;;;5053187;28;20033;-62
2024/01/25 08:14:59;;;;;;;1.10;1.10;;;;;;;;;;5053051;28;20501;-63
2024/01/25 08:17:26;;;;;;;1.40;1.30;;;;;;;;;;5049552;28;20037;-63
2024/01/25 08:19:52;;;;;;;1.30;1.30;;;;;;;;;;5048625;28;20025;-63
2024/01/25 08:22:18;;;;;;;2.75;1.25;;;;;;;;;;5049139;28;20033;-63
2024/01/25 08:24:44;;;;;;;1.55;1.45;;;;;;;;;;5041299;28;20161;-63
2024/01/25 08:27:10;;;;;;;2.25;1.30;;;;;;;;;;5043801;28;20511;-63
2024/01/25 08:29:37;;;;;;;1.80;1.45;;;;;;;;;;5037155;28;20025;-63
2024/01/25 08:32:03;;;;;;;2.92;1.35;;;;;;;;;;5046254;28;20041;-63
2024/01/25 08:34:29;;;;;;;3.15;1.60;;;;;;;;;;5054874;28;20463;-62
2024/01/25 08:36:55;;;;;;;1.35;1.35;;;;;;;;;;5054433;28;20021;-63
2024/01/25 08:39:21;;;;;;;7.32;1.60;;;;;;;;;;5035125;28;20515;-63
2024/01/25 08:41:49;;;;;;;4.93;2.05;;;;;;;;;;5052937;28;20040;-63
2024/01/25 08:44:16;;;;;;;1.35;1.25;;;;;;;;;;5053140;28;20013;-62
2024/01/25 08:46:43;;;;;;;2.00;1.63;;;;;;;;;;5030662;28;20488;-63
2024/01/25 08:49:12;;;;;;;1.98;1.58;;;;;;;;;;5053480;28;20078;-63
2024/01/25 08:51:38;;;;;;;2.58;1.58;;;;;;;;;;5052524;28;20159;-63
2024/01/25 08:54:04;;;;;;;6.97;1.85;;;;;;;;;;5053994;28;20031;-63
2024/01/25 08:56:31;;;;;;;3.15;1.77;;;;;;;;;;5050425;28;20442;-63
2024/01/25 08:58:57;;;;;;;2.35;1.40;;;;;;;;;;5048261;28;20125;-63
2024/01/25 09:01:23;;;;;;;3.92;1.30;;;;;;;;;;5050892;28;20440;-64
2024/01/25 09:03:49;;;;;;;6.10;1.35;;;;;;;;;;5053489;28;20029;-63
2024/01/25 09:06:16;;;;;;;1.45;1.35;;;;;;;;;;5046408;28;20021;-63
2024/01/25 09:08:42;;;;;;;5.65;1.58;;;;;;;;;;5043059;28;20116;-63
2024/01/25 09:11:08;;;;;;;1.85;1.42;;;;;;;;;;5051052;28;20492;-63
2024/01/25 09:13:34;;;;;;;1.70;1.60;;;;;;;;;;5043773;28;20058;-63
2024/01/25 09:16:00;;;;;;;1.98;1.60;;;;;;;;;;5051521;28;20012;-63
2024/01/25 09:18:26;;;;;;;1.42;1.35;;;;;;;;;;5053681;28;20528;-63
2024/01/25 09:20:52;;;;;;;1.92;1.25;;;;;;;;;;5049718;28;20064;-64
2024/01/25 09:23:20;;;;;;;4.10;1.40;;;;;;;;;;5048633;28;20028;-63
2024/01/25 09:25:46;;;;;;;1.92;1.40;;;;;;;;;;5044191;28;20465;-63
2024/01/25 09:28:12;;;;;;;1.38;1.27;;;;;;;;;;5049321;28;20021;-63
2024/01/25 09:30:39;;;;;;;5.85;1.83;;;;;;;;;;5049094;28;20028;-63
2024/01/25 09:33:06;;;;;;;1.20;1.20;;;;;;;;;;5048112;28;20066;-62
2024/01/25 09:35:32;;;;;;;1.63;1.48;;;;;;;;;;5057366;28;20035;-63
2024/01/25 09:37:58;;;;;;;1.98;1.40;;;;;;;;;;5042307;28;20644;-63
2024/01/25 09:40:24;;;;;;;1.75;1.63;;;;;;;;;;5055802;28;20508;-63
2024/01/25 09:42:52;;;;;;;2.22;1.45;;;;;;;;;;5057437;28;20020;-64
2024/01/25 09:45:19;;;;;;;2.97;1.58;;;;;;;;;;5053517;28;20492;-63
2024/01/25 09:47:46;;;;;;;1.15;1.15;;;;;;;;;;5056762;28;20480;-63
2024/01/25 09:50:13;;;;;;;1.38;1.35;;;;;;;;;;5047636;28;20063;-64
2024/01/25 09:52:39;;;;;;;1.85;1.27;;;;;;;;;;5048587;28;21037;-64
2024/01/25 09:55:07;;;;;;;1.48;1.38;;;;;;;;;;5029155;28;20033;-63
2024/01/25 09:57:39;;;;;;;3.00;2.72;;;;;;;;;;5047211;28;20032;-63
2024/01/25 10:00:09;;;;;;;1.58;1.45;;;;;;;;;;5052711;28;20484;-63
2024/01/25 10:02:35;;;;;;;1.40;1.30;;;;;;;;;;5059457;28;20319;-63
2024/01/25 10:05:02;;;;;;;1.55;1.45;;;;;;;;;;5050430;28;20021;-63
2024/01/25 10:07:44;;;;;;;1.67;1.58;;;;;;;;;;5051554;28;20498;-63
2024/01/25 10:10:11;;;;;;;2.40;1.80;;;;;;;;;;5039475;28;20079;-63
2024/01/25 10:12:42;;;;;;;4.03;2.20;;;;;;;;;;5053884;28;20484;-63
2024/01/25 10:15:08;;;;;;;1.48;1.38;;;;;;;;;;5048757;28;20040;-63
2024/01/25 10:17:35;;;;;;;6.15;1.75;;;;;;;;;;5049478;28;20037;-63
2024/01/25 10:20:01;;;;;;;1.52;1.42;;;;;;;;;;5047120;28;20077;-63
2024/01/25 10:22:27;;;;;;;2.78;1.40;;;;;;;;;;5050271;28;20037;-63
2024/01/25 10:24:54;;;;;;;2.28;2.05;;;;;;;;;;5057699;28;20066;-64
2024/01/25 10:27:20;;;;;;;3.65;1.40;;;;;;;;;;5058010;28;20033;-63
2024/01/25 10:29:46;;;;;;;2.80;1.60;;;;;;;;;;5054515;28;20685;-63
2024/01/25 10:32:13;;;;;;;2.25;2.05;;;;;;;;;;5048207;28;20488;-63
2024/01/25 10:34:43;;;;;;;2.70;1.40;;;;;;;;;;5054518;28;20082;-63
2024/01/25 10:37:10;;;;;;;2.35;1.27;;;;;;;;;;5046997;28;20571;-64
2024/01/25 10:39:36;;;;;;;2.72;1.70;;;;;;;;;;5046746;28;20395;-63
2024/01/25 10:42:02;;;;;;;1.25;1.23;;;;;;;;;;5051932;28;20515;-63
2024/01/25 10:44:28;;;;;;;2.78;1.75;;;;;;;;;;5056066;28;20476;-64
2024/01/25 10:46:55;;;;;;;1.60;1.50;;;;;;;;;;5040469;28;20048;-63
2024/01/25 10:49:21;;;;;;;1.63;1.27;;;;;;;;;;5054952;28;20396;-63
2024/01/25 10:51:48;;;;;;;1.50;1.38;;;;;;;;;;5046294;28;20025;-63
2024/01/25 10:54:15;;;;;;;2.53;1.20;;;;;;;;;;5047579;28;20049;-63
2024/01/25 10:56:47;;;;;;;2.60;1.38;;;;;;;;;;5049021;28;20040;-64
2024/01/25 10:59:13;;;;;;;1.35;1.30;;;;;;;;;;5064636;28;20056;-63
2024/01/25 11:01:48;;;;;;;1.30;1.30;;;;;;;;;;5067020;28;20039;-63
2024/01/25 11:04:18;;;;;;;4.63;1.40;;;;;;;;;;5063598;28;20017;-67
2024/01/25 11:06:45;;;;;;;2.75;1.33;;;;;;;;;;5066856;28;20024;-63
2024/01/25 11:09:16;;;;;;;1.10;1.10;;;;;;;;;;5081133;28;20524;-63
2024/01/25 11:11:45;;;;;;;1.25;1.25;;;;;;;;;;5067894;28;20028;-63
2024/01/25 11:14:16;;;;;;;1.73;1.63;;;;;;;;;;5074990;28;20020;-63
2024/01/25 11:16:44;;;;;;;1.40;1.30;;;;;;;;;;5065743;28;20104;-63
2024/01/25 11:19:16;;;;;;;2.22;1.20;;;;;;;;;;5075352;28;20615;-63
2024/01/25 11:21:46;;;;;;;1.33;1.33;;;;;;;;;;5066765;28;20701;-63
2024/01/25 11:24:13;;;;;;;1.25;1.15;;;;;;;;;;5070155;28;20404;-63
2024/01/25 11:26:39;;;;;;;1.35;1.30;;;;;;;;;;5076634;28;20031;-64
2024/01/25 11:29:06;;;;;;;2.28;1.85;;;;;;;;;;5076286;28;20028;-63
2024/01/25 11:31:32;;;;;;;1.95;1.02;;;;;;;;;;5069254;28;20095;-63
2024/01/25 11:34:01;;;;;;;2.47;1.40;;;;;;;;;;5075893;28;20028;-63
2024/01/25 11:36:27;;;;;;;2.53;1.65;;;;;;;;;;5077377;28;20536;-64
2024/01/25 11:38:54;;;;;;;0.98;0.98;;;;;;;;;;5068180;28;20459;-65
2024/01/25 11:41:20;;;;;;;1.23;1.20;;;;;;;;;;5072417;28;20028;-64
2024/01/25 11:43:50;;;;;;;1.10;1.02;;;;;;;;;;5079202;28;20399;-63
2024/01/25 11:46:16;;;;;;;3.03;1.13;;;;;;;;;;5080409;28;20024;-68
2024/01/25 11:48:42;;;;;;;1.13;1.13;;;;;;;;;;5077264;28;20025;-63
2024/01/25 11:51:11;;;;;;;1.30;1.23;;;;;;;;;;5079131;28;20064;-66
2024/01/25 11:53:38;;;;;;;1.08;1.08;;;;;;;;;;5080510;28;20032;-63
2024/01/25 11:56:07;;;;;;;1.27;1.17;;;;;;;;;;5078490;28;20070;-71
2024/01/25 11:58:34;;;;;;;1.10;1.10;;;;;;;;;;5061240;28;20215;-66
2024/01/25 12:01:00;;;;;;;1.38;1.27;;;;;;;;;;5057393;28;20036;-65
2024/01/25 12:03:26;;;;;;;1.13;1.13;;;;;;;;;;5051983;28;20047;-64
2024/01/25 12:05:53;;;;;;;1.10;1.10;;;;;;;;;;5046536;28;20028;-64
2024/01/25 12:08:19;;;;;;;1.40;1.30;;;;;;;;;;5049115;28;20289;-63
2024/01/25 12:10:45;;;;;;;1.33;1.23;;;;;;;;;;5059951;28;20028;-63
2024/01/25 12:13:11;;;;;;;1.67;1.52;;;;;;;;;;5061622;28;20025;-63
2024/01/25 12:15:37;;;;;;;1.20;1.20;;;;;;;;;;5049572;28;20413;-67
2024/01/25 12:18:05;;;;;;;1.10;1.10;;;;;;;;;;5040771;28;20570;-63
2024/01/25 12:20:31;;;;;;;1.15;1.15;;;;;;;;;;5042286;28;20029;-63
2024/01/25 12:22:59;;;;;;;2.10;1.58;;;;;;;;;;5056658;28;20032;-63
2024/01/25 12:25:25;;;;;;;3.03;1.40;;;;;;;;;;5052266;28;20029;-63
2024/01/25 12:27:51;;;;;;;1.48;1.20;;;;;;;;;;5064379;28;20028;-66
2024/01/25 12:30:17;;;;;;;2.10;1.20;;;;;;;;;;5039830;28;20140;-64
2024/01/25 12:32:43;;;;;;;1.20;1.20;;;;;;;;;;5030310;28;20045;-63
2024/01/25 12:35:10;;;;;;;1.20;1.20;;;;;;;;;;5044655;28;20086;-63
2024/01/25 12:37:36;;;;;;;1.50;1.40;;;;;;;;;;5057079;28;20491;-63
2024/01/25 12:40:02;;;;;;;1.30;1.30;;;;;;;;;;5052479;28;20029;-63
2024/01/25 12:42:28;;;;;;;1.00;1.00;;;;;;;;;;5058342;28;20459;-63
2024/01/25 12:44:55;;;;;;;1.35;1.23;;;;;;;;;;5060188;28;20017;-63
2024/01/25 12:47:21;;;;;;;2.90;1.40;;;;;;;;;;5048632;28;20474;-64
2024/01/25 12:49:47;;;;;;;1.30;1.20;;;;;;;;;;5055358;28;20071;-63
2024/01/25 12:52:14;;;;;;;1.75;1.40;;;;;;;;;;5053239;28;20429;-64
2024/01/25 12:54:41;;;;;;;1.50;1.40;;;;;;;;;;5052714;28;20511;-63
2024/01/25 12:57:07;;;;;;;1.23;1.23;;;;;;;;;;5055377;28;20032;-63
2024/01/25 12:59:34;;;;;;;2.88;1.50;;;;;;;;;;5056244;28;20051;-64
2024/01/25 13:02:00;;;;;;;1.05;1.00;;;;;;;;;;5038675;28;20033;-63
2024/01/25 13:04:26;;;;;;;1.25;1.25;;;;;;;;;;5059173;28;20114;-63
2024/01/25 13:06:54;;;;;;;1.10;1.10;;;;;;;;;;5051812;28;20029;-64
2024/01/25 13:09:20;;;;;;;1.30;1.20;;;;;;;;;;5048503;28;20028;-63
2024/01/25 13:11:47;;;;;;;1.00;1.00;;;;;;;;;;5046718;28;20417;-63
2024/01/25 13:14:13;;;;;;;2.30;1.48;;;;;;;;;;5046325;28;20071;-64
2024/01/25 13:16:39;;;;;;;1.30;1.20;;;;;;;;;;5056616;28;20093;-63
2024/01/25 13:19:05;;;;;;;1.00;1.00;;;;;;;;;;5050270;28;20124;-63
2024/01/25 13:21:32;;;;;;;1.30;1.30;;;;;;;;;;5053007;28;20037;-63
2024/01/25 13:24:00;;;;;;;1.38;1.27;;;;;;;;;;5047552;28;20430;-64
2024/01/25 13:26:26;;;;;;;1.55;1.20;;;;;;;;;;5040663;28;20029;-63
2024/01/25 13:28:53;;;;;;;1.25;1.20;;;;;;;;;;5058994;28;20091;-63
2024/01/25 13:31:19;;;;;;;1.20;1.20;;;;;;;;;;5044707;28;20056;-64
2024/01/25 13:33:46;;;;;;;4.30;1.45;;;;;;;;;;5034420;28;20507;-63
2024/01/25 13:36:14;;;;;;;1.30;1.30;;;;;;;;;;5063541;28;20023;-63
2024/01/25 13:38:42;;;;;;;3.30;1.27;;;;;;;;;;5052881;28;20036;-63
2024/01/25 13:41:09;;;;;;;1.92;1.33;;;;;;;;;;5050566;28;20029;-64
2024/01/25 13:43:35;;;;;;;1.17;1.17;;;;;;;;;;5040759;28;20060;-63
2024/01/25 13:46:01;;;;;;;1.67;1.30;;;;;;;;;;5063519;28;20035;-63
2024/01/25 13:48:27;;;;;;;1.13;1.13;;;;;;;;;;5052397;28;20060;-63
2024/01/25 13:50:53;;;;;;;3.03;1.20;;;;;;;;;;5059836;28;20449;-63
2024/01/25 13:53:20;;;;;;;3.22;1.33;;;;;;;;;;5058031;28;20556;-63
2024/01/25 13:55:46;;;;;;;2.83;1.20;;;;;;;;;;5061751;28;20104;-63
2024/01/25 13:58:12;;;;;;;1.20;1.20;;;;;;;;;;5052266;28;20068;-64
2024/01/25 14:00:38;;;;;;;1.63;1.45;;;;;;;;;;5068598;28;20082;-63
2024/01/25 14:03:04;;;;;;;1.40;1.30;;;;;;;;;;5066982;28;20064;-64
2024/01/25 14:05:30;;;;;;;2.53;1.60;;;;;;;;;;5069796;28;20036;-63
2024/01/25 14:07:57;;;;;;;1.40;1.30;;;;;;;;;;5078669;28;20024;-63
2024/01/25 14:10:23;;;;;;;1.48;1.38;;;;;;;;;;5065230;28;20566;-64
2024/01/25 14:12:50;;;;;;;1.48;1.27;;;;;;;;;;5063738;28;20028;-63
2024/01/25 14:15:16;;;;;;;1.42;1.33;;;;;;;;;;5075279;28;20031;-63
2024/01/25 14:17:42;;;;;;;1.40;1.30;;;;;;;;;;5080462;28;20031;-63
2024/01/25 14:20:08;;;;;;;1.38;1.27;;;;;;;;;;5058747;28;20033;-63
2024/01/25 14:22:34;;;;;;;1.27;1.17;;;;;;;;;;5065756;28;20060;-63
2024/01/25 14:25:01;;;;;;;1.73;1.40;;;;;;;;;;5065895;28;20025;-63
2024/01/25 14:27:27;;;;;;;1.40;1.30;;;;;;;;;;5065685;28;20085;-63
2024/01/25 14:29:53;;;;;;;1.42;1.33;;;;;;;;;;5062725;28;20389;-63
2024/01/25 14:32:21;;;;;;;1.33;1.30;;;;;;;;;;5067705;28;20566;-63
2024/01/25 14:34:48;;;;;;;1.10;1.10;;;;;;;;;;5072986;28;20161;-64
2024/01/25 14:37:14;;;;;;;1.50;1.40;;;;;;;;;;5068834;28;20583;-63
2024/01/25 14:39:40;;;;;;;1.60;1.50;;;;;;;;;;5080900;28;20039;-63